createdAt,value
2022-07-28T00:00:08.390Z,101091.19
2022-07-28T00:02:35.418Z,101087.66
2022-07-28T00:05:02.268Z,101087.84
2022-07-28T00:07:28.966Z,101086.91
2022-07-28T00:10:00.116Z,101083.34
2022-07-28T00:12:27.274Z,101087.97
2022-07-28T00:14:53.922Z,101093.59
2022-07-28T00:17:20.583Z,101100.91
2022-07-28T00:19:47.208Z,101099.63
2022-07-28T00:22:13.799Z,101105.59
2022-07-28T00:24:41.321Z,101100.88
2022-07-28T00:27:08.290Z,101108.81
2022-07-28T00:29:50.031Z,101102.84
2022-07-28T00:32:18.570Z,101099.94
2022-07-28T00:34:45.335Z,101094.81
2022-07-28T00:37:14.695Z,101091.97
2022-07-28T00:39:42.390Z,101091.25
2022-07-28T00:42:09.245Z,101089.66
2022-07-28T00:44:36.564Z,101094.47
2022-07-28T00:47:03.285Z,101088.31
2022-07-28T00:49:30.023Z,101090.06
2022-07-28T00:51:57.254Z,101097.28
2022-07-28T00:54:23.926Z,101099.22
2022-07-28T00:56:51.008Z,101096.72
2022-07-28T00:59:17.647Z,101108.50
2022-07-28T01:01:44.565Z,101105.06
2022-07-28T01:04:11.732Z,101098.38
2022-07-28T01:07:16.951Z,101101.78
2022-07-28T01:09:52.876Z,101113.72
2022-07-28T01:12:30.138Z,101103.09
2022-07-28T01:15:14.977Z,101103.94
2022-07-28T01:18:04.997Z,101101.22
2022-07-28T01:20:34.631Z,101109.91
2022-07-28T01:23:32.003Z,101106.34
2022-07-28T01:26:23.271Z,101114.28
2022-07-28T01:29:20.157Z,101120.44
2022-07-28T01:31:58.164Z,101117.84
2022-07-28T01:34:32.007Z,101117.00
2022-07-28T01:37:06.278Z,101119.81
2022-07-28T01:39:36.061Z,101119.72
2022-07-28T01:42:05.014Z,101125.03
2022-07-28T01:44:34.416Z,101125.25
2022-07-28T01:47:05.109Z,101128.88
2022-07-28T01:49:32.393Z,101122.25
2022-07-28T01:52:02.141Z,101118.16
2022-07-28T01:54:30.384Z,101115.16
2022-07-28T01:56:59.219Z,101114.41
2022-07-28T01:59:30.221Z,101109.19
2022-07-28T02:02:00.418Z,101120.75
2022-07-28T02:04:31.118Z,101119.09
2022-07-28T02:06:59.545Z,101114.25
2022-07-28T02:09:27.330Z,101117.81
2022-07-28T02:11:55.965Z,101117.81
2022-07-28T02:14:25.692Z,101118.63
2022-07-28T02:16:57.845Z,101111.19
2022-07-28T02:19:26.045Z,101120.69
2022-07-28T02:21:54.429Z,101118.38
2022-07-28T02:24:26.286Z,101125.47
2022-07-28T02:27:00.876Z,101130.78
2022-07-28T02:29:50.347Z,101131.44
2022-07-28T02:32:33.802Z,101127.03
2022-07-28T02:35:09.676Z,101131.72
2022-07-28T02:37:39.856Z,101125.94
2022-07-28T02:40:12.189Z,101127.88
2022-07-28T02:42:40.313Z,101128.75
2022-07-28T02:45:11.737Z,101130.59
2022-07-28T02:47:44.131Z,101131.34
2022-07-28T02:50:14.308Z,101131.16
2022-07-28T02:52:42.622Z,101132.84
2022-07-28T02:55:12.169Z,101128.38
2022-07-28T02:57:41.499Z,101129.19
2022-07-28T03:00:08.775Z,101129.81
2022-07-28T03:02:36.737Z,101136.00
2022-07-28T03:05:07.715Z,101135.91
2022-07-28T03:07:50.828Z,101132.44
2022-07-28T03:10:33.695Z,101133.59
2022-07-28T03:13:05.308Z,101138.13
2022-07-28T03:15:32.223Z,101140.69
2022-07-28T03:18:00.819Z,101136.38
2022-07-28T03:20:28.011Z,101145.78
2022-07-28T03:22:55.395Z,101145.03
2022-07-28T03:25:40.486Z,101150.06
2022-07-28T03:28:09.279Z,101153.81
2022-07-28T03:30:41.862Z,101149.44
2022-07-28T03:33:09.438Z,101157.34
2022-07-28T03:35:44.936Z,101152.13
2022-07-28T03:38:14.745Z,101159.03
2022-07-28T03:40:46.976Z,101162.19
2022-07-28T03:43:16.650Z,101162.03
2022-07-28T03:45:46.718Z,101163.69
2022-07-28T03:48:16.535Z,101163.50
2022-07-28T03:50:43.315Z,101172.09
2022-07-28T03:53:19.130Z,101165.66
2022-07-28T03:55:50.583Z,101162.09
2022-07-28T03:58:26.232Z,101163.28
2022-07-28T04:00:55.963Z,101163.22
2022-07-28T04:03:43.145Z,101167.31
2022-07-28T04:06:09.637Z,101164.25
2022-07-28T04:08:36.321Z,101168.34
2022-07-28T04:11:03.197Z,101161.06
2022-07-28T04:13:31.995Z,101165.25
2022-07-28T04:15:59.988Z,101167.13
2022-07-28T04:18:26.639Z,101174.69
2022-07-28T04:20:53.265Z,101173.66
2022-07-28T04:23:20.940Z,101163.19
2022-07-28T04:25:47.961Z,101170.41
2022-07-28T04:28:15.648Z,101172.63
2022-07-28T04:30:44.126Z,101180.06
2022-07-28T04:33:11.203Z,101179.88
2022-07-28T04:35:37.913Z,101183.16
2022-07-28T04:38:04.738Z,101185.66
2022-07-28T04:40:33.927Z,101194.25
2022-07-28T04:43:00.634Z,101194.59
2022-07-28T04:45:27.341Z,101182.50
2022-07-28T04:47:54.016Z,101183.34
2022-07-28T04:50:21.551Z,101184.19
2022-07-28T04:52:57.370Z,101184.06
2022-07-28T04:55:24.475Z,101190.16
2022-07-28T04:57:51.412Z,101192.47
2022-07-28T05:00:18.674Z,101192.19
2022-07-28T05:02:45.857Z,101187.81
2022-07-28T05:05:13.530Z,101192.28
2022-07-28T05:07:41.327Z,101188.47
2022-07-28T05:10:10.315Z,101193.56
2022-07-28T05:12:37.026Z,101192.78
2022-07-28T05:15:04.994Z,101197.06
2022-07-28T05:17:31.592Z,101196.97
2022-07-28T05:19:58.377Z,101201.28
2022-07-28T05:22:24.975Z,101199.72
2022-07-28T05:24:51.639Z,101191.97
2022-07-28T05:27:18.267Z,101195.63
2022-07-28T05:29:47.719Z,101206.31
2022-07-28T05:32:16.346Z,101202.75
2022-07-28T05:34:43.752Z,101205.53
2022-07-28T05:37:10.372Z,101204.59
2022-07-28T05:39:37.581Z,101208.88
2022-07-28T05:42:04.556Z,101208.66
2022-07-28T05:44:37.217Z,101203.53
2022-07-28T05:47:05.004Z,101212.13
2022-07-28T05:49:31.715Z,101218.19
2022-07-28T05:52:00.092Z,101219.06
2022-07-28T05:54:26.780Z,101222.50
2022-07-28T05:56:53.690Z,101231.63
2022-07-28T05:59:20.334Z,101223.44
2022-07-28T06:01:47.210Z,101231.19
2022-07-28T06:04:26.597Z,101237.41
2022-07-28T06:06:54.536Z,101239.06
2022-07-28T06:09:21.149Z,101234.84
2022-07-28T06:11:49.826Z,101249.31
2022-07-28T06:14:16.776Z,101248.56
2022-07-28T06:16:44.811Z,101252.59
2022-07-28T06:19:11.564Z,101250.50
2022-07-28T06:21:38.235Z,101258.53
2022-07-28T06:24:05.393Z,101256.03
2022-07-28T06:26:32.060Z,101255.16
2022-07-28T06:28:58.734Z,101254.25
2022-07-28T06:31:25.554Z,101262.31
2022-07-28T06:33:52.183Z,101270.25
2022-07-28T06:36:18.813Z,101266.22
2022-07-28T06:38:45.601Z,101277.41
2022-07-28T06:41:12.289Z,101271.81
2022-07-28T06:43:39.447Z,101276.00
2022-07-28T06:46:06.936Z,101283.69
2022-07-28T06:48:34.234Z,101276.63
2022-07-28T06:51:01.162Z,101279.47
2022-07-28T06:53:32.390Z,101282.72
2022-07-28T06:56:00.860Z,101282.13
2022-07-28T06:58:27.504Z,101279.06
2022-07-28T07:00:54.977Z,101273.09
2022-07-28T07:03:21.721Z,101270.34
2022-07-28T07:05:51.618Z,101275.31
2022-07-28T07:08:20.833Z,101281.88
2022-07-28T07:10:47.641Z,101290.81
2022-07-28T07:13:14.296Z,101280.78
2022-07-28T07:15:41.240Z,101276.31
2022-07-28T07:18:08.207Z,101275.88
2022-07-28T07:20:34.828Z,101276.03
2022-07-28T07:23:01.680Z,101282.25
2022-07-28T07:25:28.351Z,101285.03
2022-07-28T07:27:55.027Z,101296.00
2022-07-28T07:30:21.693Z,101290.03
2022-07-28T07:32:48.422Z,101291.06
2022-07-28T07:35:15.160Z,101298.16
2022-07-28T07:37:41.826Z,101295.97
2022-07-28T07:40:09.739Z,101302.13
2022-07-28T07:42:36.615Z,101299.50
2022-07-28T07:45:03.944Z,101307.44
2022-07-28T07:47:31.108Z,101303.50
2022-07-28T07:49:58.045Z,101304.56
2022-07-28T07:52:27.100Z,101309.06
2022-07-28T07:54:54.085Z,101307.88
2022-07-28T07:57:23.402Z,101313.97
2022-07-28T07:59:50.046Z,101310.84
2022-07-28T08:02:16.699Z,101311.66
2022-07-28T08:04:43.441Z,101314.28
2022-07-28T08:07:10.287Z,101315.75
2022-07-28T08:09:37.134Z,101328.56
2022-07-28T08:12:04.106Z,101325.06
2022-07-28T08:14:30.737Z,101325.19
2022-07-28T08:17:07.879Z,101323.31
2022-07-28T08:19:34.669Z,101333.59
2022-07-28T08:22:02.476Z,101322.28
2022-07-28T08:24:34.095Z,101331.91
2022-07-28T08:27:02.326Z,101335.78
2022-07-28T08:29:29.553Z,101333.31
2022-07-28T08:31:56.545Z,101331.28
2022-07-28T08:34:31.061Z,101328.78
2022-07-28T08:37:00.715Z,101324.84
2022-07-28T08:39:27.405Z,101329.59
2022-07-28T08:42:18.042Z,101338.56
2022-07-28T08:44:58.360Z,101339.75
2022-07-28T08:47:40.615Z,101339.78
2022-07-28T08:50:16.201Z,101339.34
2022-07-28T08:52:45.537Z,101349.75
2022-07-28T08:55:19.183Z,101349.03
2022-07-28T08:57:46.723Z,101353.22
2022-07-28T09:00:13.797Z,101345.66
2022-07-28T09:02:47.038Z,101350.72
2022-07-28T09:05:22.919Z,101355.72
2022-07-28T09:07:54.615Z,101360.41
2022-07-28T09:10:22.313Z,101362.44
2022-07-28T09:12:49.056Z,101355.03
2022-07-28T09:15:15.834Z,101356.81
2022-07-28T09:17:43.140Z,101353.09
2022-07-28T09:20:11.549Z,101362.69
2022-07-28T09:22:56.514Z,101363.50
2022-07-28T09:25:23.846Z,101368.28
2022-07-28T09:27:51.849Z,101366.53
2022-07-28T09:30:33.152Z,101371.38
2022-07-28T09:33:41.902Z,101358.13
2022-07-28T09:36:04.593Z,101358.63
2022-07-28T09:38:43.211Z,101365.66
2022-07-28T09:41:10.073Z,101369.72
2022-07-28T09:43:37.927Z,101378.19
2022-07-28T09:46:16.168Z,101370.44
2022-07-28T09:48:51.775Z,101366.75
2022-07-28T09:51:24.798Z,101367.09
2022-07-28T09:53:52.459Z,101373.75
2022-07-28T09:56:19.546Z,101367.69
2022-07-28T09:59:00.540Z,101366.66
2022-07-28T10:01:31.173Z,101364.59
2022-07-28T10:04:04.295Z,101366.28
2022-07-28T10:06:34.567Z,101362.31
2022-07-28T10:09:05.457Z,101365.31
2022-07-28T10:11:32.153Z,101365.06
2022-07-28T10:14:00.306Z,101367.91
2022-07-28T10:16:32.314Z,101372.13
2022-07-28T10:19:01.649Z,101355.34
2022-07-28T10:21:31.006Z,101356.63
2022-07-28T10:24:04.625Z,101362.22
2022-07-28T10:26:33.410Z,101366.34
2022-07-28T10:29:05.786Z,101372.97
2022-07-28T10:31:48.587Z,101361.47
2022-07-28T10:34:24.641Z,101376.16
2022-07-28T10:36:54.383Z,101377.09
2022-07-28T10:39:23.931Z,101365.50
2022-07-28T10:41:51.491Z,101375.31
2022-07-28T10:44:19.839Z,101370.06
2022-07-28T10:46:46.973Z,101366.59
2022-07-28T10:49:14.861Z,101378.72
2022-07-28T10:52:02.161Z,101377.78
2022-07-28T10:54:33.355Z,101372.50
2022-07-28T10:57:04.742Z,101384.09
2022-07-28T10:59:58.632Z,101379.78
2022-07-28T11:02:52.378Z,101384.06
2022-07-28T11:05:39.643Z,101376.91
2022-07-28T11:08:15.263Z,101378.78
2022-07-28T11:10:50.091Z,101385.06
2022-07-28T11:13:23.912Z,101375.31
2022-07-28T11:15:57.641Z,101371.97
2022-07-28T11:18:24.969Z,101372.59
2022-07-28T11:20:58.703Z,101373.00
2022-07-28T11:23:47.906Z,101379.28
2022-07-28T11:26:20.897Z,101372.41
2022-07-28T11:29:00.145Z,101376.19
2022-07-28T11:31:47.774Z,101363.41
2022-07-28T11:34:19.336Z,101361.59
2022-07-28T11:36:58.937Z,101364.31
2022-07-28T11:39:30.764Z,101370.69
2022-07-28T11:42:28.254Z,101379.34
2022-07-28T11:44:57.040Z,101372.50
2022-07-28T11:47:25.731Z,101366.91
2022-07-28T11:50:12.498Z,101369.28
2022-07-28T11:52:40.188Z,101366.63
2022-07-28T11:55:06.908Z,101364.53
2022-07-28T11:57:41.601Z,101364.84
2022-07-28T12:00:08.859Z,101365.28
2022-07-28T12:02:35.750Z,101363.25
2022-07-28T12:05:06.455Z,101372.00
2022-07-28T12:07:35.758Z,101366.25
2022-07-28T12:10:43.992Z,101372.66
2022-07-28T12:13:09.332Z,101360.22
2022-07-28T12:15:36.322Z,101365.94
2022-07-28T12:18:03.148Z,101376.59
2022-07-28T12:20:32.016Z,101378.88
2022-07-28T12:23:02.648Z,101369.06
2022-07-28T12:25:30.961Z,101377.63
2022-07-28T12:28:02.032Z,101366.81
2022-07-28T12:30:29.219Z,101376.59
2022-07-28T12:32:56.001Z,101368.19
2022-07-28T12:35:25.056Z,101364.97
2022-07-28T12:37:52.090Z,101367.75
2022-07-28T12:40:27.536Z,101362.59
2022-07-28T12:42:54.355Z,101360.84
2022-07-28T12:45:21.289Z,101361.81
2022-07-28T12:47:48.282Z,101368.50
2022-07-28T12:50:19.960Z,101357.97
2022-07-28T12:53:08.322Z,101359.72
2022-07-28T12:55:35.888Z,101363.59
2022-07-28T12:58:03.247Z,101357.28
2022-07-28T13:00:36.204Z,101352.81
2022-07-28T13:03:26.313Z,101363.66
2022-07-28T13:06:04.433Z,101355.72
2022-07-28T13:08:47.772Z,101353.94
2022-07-28T13:11:42.692Z,101365.91
2022-07-28T13:14:03.338Z,101356.97
2022-07-28T13:16:30.260Z,101361.28
2022-07-28T13:19:05.805Z,101354.88
2022-07-28T13:21:56.145Z,101363.38
2022-07-28T13:24:26.761Z,101369.00
2022-07-28T13:26:53.715Z,101358.81
2022-07-28T13:29:20.467Z,101359.13
2022-07-28T13:31:47.273Z,101359.63
2022-07-28T13:34:14.914Z,101357.97
2022-07-28T13:36:42.077Z,101356.53
2022-07-28T13:39:10.776Z,101358.94
2022-07-28T13:41:57.659Z,101356.13
2022-07-28T13:44:24.309Z,101360.16
2022-07-28T13:46:51.664Z,101356.44
2022-07-28T13:49:21.312Z,101367.09
2022-07-28T13:51:49.025Z,101361.97
2022-07-28T13:54:19.030Z,101360.78
2022-07-28T13:56:46.634Z,101365.63
2022-07-28T13:59:13.753Z,101356.06
2022-07-28T14:01:42.325Z,101359.50
2022-07-28T14:04:14.624Z,101359.97
2022-07-28T14:06:44.964Z,101363.47
2022-07-28T14:09:12.974Z,101360.59
2022-07-28T14:11:49.699Z,101364.47
2022-07-28T14:14:25.235Z,101353.78
2022-07-28T14:16:54.631Z,101354.63
2022-07-28T14:19:23.605Z,101355.19
2022-07-28T14:22:12.856Z,101353.09
2022-07-28T14:24:44.294Z,101356.28
2022-07-28T14:27:11.403Z,101351.09
2022-07-28T14:29:40.337Z,101356.91
2022-07-28T14:32:07.270Z,101351.41
2022-07-28T14:34:34.622Z,101352.00
2022-07-28T14:37:03.520Z,101349.63
2022-07-28T14:39:35.213Z,101344.34
2022-07-28T14:42:01.911Z,101354.22
2022-07-28T14:44:28.588Z,101350.72
2022-07-28T14:46:55.310Z,101355.59
2022-07-28T14:49:22.019Z,101347.13
2022-07-28T14:51:48.810Z,101352.25
2022-07-28T14:54:16.008Z,101351.66
2022-07-28T14:56:43.028Z,101360.78
2022-07-28T14:59:09.703Z,101346.16
2022-07-28T15:01:36.624Z,101352.97
2022-07-28T15:04:04.154Z,101355.72
2022-07-28T15:06:31.050Z,101347.69
2022-07-28T15:08:58.550Z,101347.94
2022-07-28T15:11:25.804Z,101353.78
2022-07-28T15:13:52.591Z,101350.59
2022-07-28T15:16:19.416Z,101351.31
2022-07-28T15:18:46.069Z,101353.22
2022-07-28T15:21:16.660Z,101351.13
2022-07-28T15:23:44.154Z,101362.28
2022-07-28T15:26:10.992Z,101360.28
2022-07-28T15:28:37.838Z,101360.50
2022-07-28T15:31:06.690Z,101365.84
2022-07-28T15:33:43.849Z,101360.78
2022-07-28T15:36:14.735Z,101363.91
2022-07-28T15:38:41.541Z,101356.16
2022-07-28T15:41:13.002Z,101356.38
2022-07-28T15:43:39.825Z,101356.75
2022-07-28T15:46:10.962Z,101367.56
2022-07-28T15:48:39.659Z,101365.75
2022-07-28T15:51:06.337Z,101368.19
2022-07-28T15:53:34.453Z,101365.66
2022-07-28T15:56:01.360Z,101364.56
2022-07-28T15:58:27.956Z,101365.28
2022-07-28T16:00:54.839Z,101372.00
2022-07-28T16:03:24.768Z,101366.41
2022-07-28T16:05:52.944Z,101366.09
2022-07-28T16:08:22.969Z,101362.94
2022-07-28T16:10:51.266Z,101360.63
2022-07-28T16:13:22.760Z,101368.81
2022-07-28T16:16:14.036Z,101372.94
2022-07-28T16:18:42.816Z,101370.88
2022-07-28T16:21:10.963Z,101368.41
2022-07-28T16:23:38.081Z,101362.19
2022-07-28T16:26:07.774Z,101368.28
2022-07-28T16:28:35.024Z,101367.44
2022-07-28T16:31:01.722Z,101366.38
2022-07-28T16:33:33.129Z,101362.19
2022-07-28T16:36:03.914Z,101370.31
2022-07-28T16:38:30.783Z,101370.47
2022-07-28T16:40:57.606Z,101366.22
2022-07-28T16:43:24.862Z,101371.47
2022-07-28T16:45:54.457Z,101372.06
2022-07-28T16:48:21.284Z,101377.91
2022-07-28T16:50:48.300Z,101376.41
2022-07-28T16:53:16.420Z,101378.19
2022-07-28T16:55:43.297Z,101373.00
2022-07-28T16:58:09.956Z,101388.97
2022-07-28T17:00:36.670Z,101391.72
2022-07-28T17:03:03.369Z,101390.16
2022-07-28T17:05:30.070Z,101396.22
2022-07-28T17:07:56.809Z,101388.56
2022-07-28T17:10:27.292Z,101396.72
2022-07-28T17:12:54.677Z,101395.16
2022-07-28T17:15:22.606Z,101388.81
2022-07-28T17:17:53.142Z,101386.38
2022-07-28T17:20:20.871Z,101386.13
2022-07-28T17:22:50.532Z,101394.00
2022-07-28T17:28:05.504Z,101385.91
2022-07-28T17:30:33.153Z,101384.53
2022-07-28T17:33:04.813Z,101395.97
2022-07-28T17:35:35.135Z,101390.63
2022-07-28T17:38:04.011Z,101393.47
2022-07-28T17:40:30.891Z,101396.06
2022-07-28T17:42:57.718Z,101398.50
2022-07-28T17:45:24.853Z,101390.69
2022-07-28T17:47:51.817Z,101397.91
2022-07-28T17:50:19.019Z,101394.34
2022-07-28T17:52:48.798Z,101392.97
2022-07-28T17:55:57.515Z,101401.06
2022-07-28T17:58:28.705Z,101391.69
2022-07-28T18:01:10.417Z,101399.94
2022-07-28T18:03:57.935Z,101401.31
2022-07-28T18:06:34.486Z,101402.31
2022-07-28T18:09:06.957Z,101404.63
2022-07-28T18:11:57.164Z,101400.63
2022-07-28T18:14:29.162Z,101397.97
2022-07-28T18:16:56.604Z,101405.25
2022-07-28T18:19:23.344Z,101398.97
2022-07-28T18:21:50.237Z,101401.09
2022-07-28T18:24:18.472Z,101401.78
2022-07-28T18:26:45.559Z,101404.88
2022-07-28T18:29:12.244Z,101402.19
2022-07-28T18:31:45.508Z,101410.16
2022-07-28T18:34:13.658Z,101414.19
2022-07-28T18:36:40.679Z,101408.00
2022-07-28T18:39:07.483Z,101411.94
2022-07-28T18:41:45.968Z,101407.97
2022-07-28T18:44:15.503Z,101415.47
2022-07-28T18:46:42.555Z,101413.50
2022-07-28T18:49:09.311Z,101408.84
2022-07-28T18:51:36.129Z,101412.91
2022-07-28T18:54:02.765Z,101410.72
2022-07-28T18:56:29.344Z,101413.78
2022-07-28T18:58:57.152Z,101414.19
2022-07-28T19:01:23.925Z,101416.22
2022-07-28T19:03:50.759Z,101418.31
2022-07-28T19:06:17.357Z,101417.69
2022-07-28T19:08:44.087Z,101426.97
2022-07-28T19:11:10.666Z,101431.72
2022-07-28T19:13:37.446Z,101421.63
2022-07-28T19:16:04.559Z,101428.81
2022-07-28T19:18:31.225Z,101424.88
2022-07-28T19:20:57.911Z,101426.09
2022-07-28T19:23:24.612Z,101428.38
2022-07-28T19:25:51.715Z,101434.75
2022-07-28T19:28:18.519Z,101431.88
2022-07-28T19:30:45.231Z,101442.16
2022-07-28T19:33:14.677Z,101446.25
2022-07-28T19:35:45.497Z,101441.53
2022-07-28T19:38:12.554Z,101441.75
2022-07-28T19:40:41.412Z,101442.81
2022-07-28T19:43:08.103Z,101442.13
2022-07-28T19:45:37.229Z,101448.22
2022-07-28T19:48:04.185Z,101451.44
2022-07-28T19:50:31.075Z,101452.41
2022-07-28T19:52:58.076Z,101459.97
2022-07-28T19:55:26.972Z,101449.66
2022-07-28T19:57:56.130Z,101462.34
2022-07-28T20:00:22.871Z,101465.69
2022-07-28T20:02:49.697Z,101461.63
2022-07-28T20:05:16.887Z,101468.00
2022-07-28T20:07:43.557Z,101463.69
2022-07-28T20:10:10.306Z,101461.78
2022-07-28T20:12:37.316Z,101462.94
2022-07-28T20:15:05.718Z,101462.69
2022-07-28T20:17:40.114Z,101466.75
2022-07-28T20:20:12.086Z,101466.19
2022-07-28T20:22:41.043Z,101463.88
2022-07-28T20:25:09.441Z,101467.38
2022-07-28T20:27:40.966Z,101470.38
2022-07-28T20:30:10.304Z,101470.13
2022-07-28T20:32:37.932Z,101467.50
2022-07-28T20:35:05.912Z,101468.47
2022-07-28T20:37:36.720Z,101475.75
2022-07-28T20:40:08.073Z,101473.47
2022-07-28T20:42:37.660Z,101479.72
2022-07-28T20:45:05.156Z,101478.72
2022-07-28T20:47:37.674Z,101473.00
2022-07-28T20:50:05.257Z,101481.03
2022-07-28T20:52:33.724Z,101486.75
2022-07-28T20:55:04.466Z,101482.69
2022-07-28T20:57:31.367Z,101473.13
2022-07-28T20:59:58.046Z,101482.09
2022-07-28T21:02:24.734Z,101487.13
2022-07-28T21:04:52.006Z,101482.81
2022-07-28T21:07:59.568Z,101480.66
2022-07-28T21:10:06.941Z,101487.84
2022-07-28T21:12:36.750Z,101480.66
2022-07-28T21:15:10.600Z,101485.94
2022-07-28T21:17:37.497Z,101493.47
2022-07-28T21:20:06.113Z,101492.25
2022-07-28T21:22:32.891Z,101498.16
2022-07-28T21:24:59.512Z,101494.56
2022-07-28T21:27:26.217Z,101497.91
2022-07-28T21:32:18.751Z,101507.34
2022-07-28T21:34:45.456Z,101504.84
2022-07-28T21:37:13.001Z,101510.94
2022-07-28T21:39:39.945Z,101505.66
2022-07-28T21:42:08.464Z,101507.59
2022-07-28T21:44:36.538Z,101505.13
2022-07-28T21:47:03.723Z,101511.72
2022-07-28T21:49:31.347Z,101510.38
2022-07-28T21:51:58.346Z,101513.25
2022-07-28T21:54:25.037Z,101509.53
2022-07-28T21:56:51.884Z,101505.53
2022-07-28T21:59:18.500Z,101513.88
2022-07-28T22:01:45.161Z,101503.28
2022-07-28T22:04:12.145Z,101501.59
2022-07-28T22:06:38.944Z,101512.56
2022-07-28T22:09:05.561Z,101510.34
2022-07-28T22:11:32.199Z,101510.19
2022-07-28T22:13:58.854Z,101520.34
2022-07-28T22:16:25.511Z,101520.41
2022-07-28T22:18:52.254Z,101527.13
2022-07-28T22:21:18.843Z,101525.31
2022-07-28T22:23:45.485Z,101532.97
2022-07-28T22:26:12.189Z,101526.16
2022-07-28T22:28:38.897Z,101532.97
2022-07-28T22:31:09.655Z,101523.19
2022-07-28T22:33:40.044Z,101537.78
2022-07-28T22:36:08.695Z,101528.34
2022-07-28T22:38:36.013Z,101534.66
2022-07-28T22:41:02.907Z,101530.34
2022-07-28T22:43:32.163Z,101535.59
2022-07-28T22:45:58.958Z,101534.78
2022-07-28T22:48:25.656Z,101542.91
2022-07-28T22:50:52.429Z,101542.91
2022-07-28T22:53:19.054Z,101544.78
2022-07-28T22:58:30.074Z,101544.50
2022-07-28T23:00:56.937Z,101545.59
2022-07-28T23:03:25.690Z,101544.50
2022-07-28T23:06:00.589Z,101539.31
2022-07-28T23:08:27.642Z,101541.00
2022-07-28T23:10:54.576Z,101540.41
2022-07-28T23:13:21.187Z,101550.63
2022-07-28T23:15:47.829Z,101542.75
2022-07-28T23:18:14.593Z,101534.50
2022-07-28T23:20:41.784Z,101541.34
2022-07-28T23:23:08.846Z,101537.19
2022-07-28T23:25:42.693Z,101535.22
2022-07-28T23:28:10.273Z,101539.81
2022-07-28T23:30:37.477Z,101538.25
2022-07-28T23:33:05.537Z,101543.03
2022-07-28T23:35:32.579Z,101547.47
2022-07-28T23:37:59.176Z,101540.31
2022-07-28T23:40:25.915Z,101542.09
2022-07-28T23:42:52.575Z,101541.84
2022-07-28T23:45:19.306Z,101536.44
2022-07-28T23:47:45.934Z,101533.81
2022-07-28T23:50:12.575Z,101535.94
2022-07-28T23:52:39.155Z,101531.53
2022-07-28T23:55:06.621Z,101529.00
2022-07-28T23:57:33.321Z,101535.53
